createdAt,value
2022-11-16T00:01:31.147Z,10.59
2022-11-16T00:03:59.895Z,10.48
2022-11-16T00:06:28.072Z,10.48
2022-11-16T00:09:16.218Z,10.48
2022-11-16T00:11:43.266Z,10.51
2022-11-16T00:14:10.808Z,10.48
2022-11-16T00:16:37.908Z,10.50
2022-11-16T00:19:06.451Z,10.54
2022-11-16T00:21:33.887Z,10.53
2022-11-16T00:24:01.466Z,10.51
2022-11-16T00:26:28.879Z,10.50
2022-11-16T00:28:56.423Z,10.46
2022-11-16T00:31:24.084Z,10.49
2022-11-16T00:33:51.527Z,10.51
2022-11-16T00:36:18.796Z,10.49
2022-11-16T00:38:46.006Z,10.49
2022-11-16T00:41:12.773Z,10.54
2022-11-16T00:43:39.267Z,10.53
2022-11-16T00:46:06.635Z,10.52
2022-11-16T00:48:34.159Z,10.49
2022-11-16T00:51:01.429Z,10.50
2022-11-16T00:53:28.073Z,10.54
2022-11-16T00:55:55.082Z,10.59
2022-11-16T00:58:22.358Z,10.45
2022-11-16T01:00:49.554Z,10.52
2022-11-16T01:03:16.800Z,10.54
2022-11-16T01:05:43.906Z,10.52
2022-11-16T01:08:10.819Z,10.49
2022-11-16T01:10:40.411Z,10.54
2022-11-16T01:13:07.761Z,10.52
2022-11-16T01:15:34.303Z,10.49
2022-11-16T01:18:01.901Z,10.58
2022-11-16T01:20:30.177Z,10.58
2022-11-16T01:22:57.253Z,10.58
2022-11-16T01:25:24.408Z,10.62
2022-11-16T01:27:51.103Z,10.57
2022-11-16T01:30:18.126Z,10.53
2022-11-16T01:32:45.124Z,10.53
2022-11-16T01:35:17.361Z,10.53
2022-11-16T01:37:45.160Z,10.51
2022-11-16T01:40:14.171Z,10.55
2022-11-16T01:42:41.885Z,10.58
2022-11-16T01:45:19.804Z,10.53
2022-11-16T01:47:47.417Z,10.55
2022-11-16T01:50:17.380Z,10.59
2022-11-16T01:52:53.990Z,10.57
2022-11-16T01:55:22.622Z,10.56
2022-11-16T01:57:49.892Z,10.62
2022-11-16T02:00:18.413Z,10.58
2022-11-16T02:02:45.545Z,10.60
2022-11-16T02:05:16.706Z,10.59
2022-11-16T02:08:43.672Z,10.63
2022-11-16T02:11:28.856Z,10.57
2022-11-16T02:14:21.097Z,10.58
2022-11-16T02:17:01.116Z,10.59
2022-11-16T02:20:05.615Z,10.58
2022-11-16T02:22:38.444Z,10.57
2022-11-16T02:25:31.818Z,10.58
2022-11-16T02:28:43.445Z,10.59
2022-11-16T02:31:16.734Z,10.57
2022-11-16T02:33:46.727Z,10.58
2022-11-16T02:36:18.399Z,10.54
2022-11-16T02:38:53.900Z,10.53
2022-11-16T02:41:23.498Z,10.58
2022-11-16T02:43:57.114Z,10.57
2022-11-16T02:46:29.362Z,10.53
2022-11-16T02:49:00.014Z,10.55
2022-11-16T02:51:28.355Z,10.54
2022-11-16T02:54:03.972Z,10.55
2022-11-16T02:56:41.571Z,10.53
2022-11-16T02:59:11.427Z,10.51
2022-11-16T03:01:46.818Z,10.50
2022-11-16T03:04:27.973Z,10.51
2022-11-16T03:06:57.125Z,10.51
2022-11-16T03:09:34.171Z,10.46
2022-11-16T03:12:05.484Z,10.44
2022-11-16T03:14:35.574Z,10.49
2022-11-16T03:17:05.587Z,10.49
2022-11-16T03:19:43.086Z,10.46
2022-11-16T03:22:17.600Z,10.47
2022-11-16T03:24:44.985Z,10.45
2022-11-16T03:27:32.160Z,10.44
2022-11-16T03:30:06.584Z,10.39
2022-11-16T03:32:46.546Z,10.45
2022-11-16T03:35:23.331Z,10.44
2022-11-16T03:37:53.436Z,10.42
2022-11-16T03:40:23.311Z,10.42
2022-11-16T03:42:50.994Z,10.43
2022-11-16T03:45:18.926Z,10.42
2022-11-16T03:47:46.193Z,10.35
2022-11-16T03:50:13.636Z,10.40
2022-11-16T03:52:40.633Z,10.34
2022-11-16T03:55:07.404Z,10.36
2022-11-16T03:57:33.974Z,10.36
2022-11-16T04:00:00.933Z,10.34
2022-11-16T04:02:27.448Z,10.33
2022-11-16T04:05:12.508Z,10.31
2022-11-16T04:07:58.091Z,10.31
2022-11-16T04:10:43.355Z,10.27
2022-11-16T04:13:33.330Z,10.26
2022-11-16T04:16:18.513Z,10.29
2022-11-16T04:19:03.785Z,10.26
2022-11-16T04:21:58.120Z,10.26
2022-11-16T04:24:29.645Z,10.21
2022-11-16T04:27:19.118Z,10.23
2022-11-16T04:29:45.997Z,10.19
2022-11-16T04:32:31.406Z,10.19
2022-11-16T04:35:16.627Z,10.19
2022-11-16T04:37:49.112Z,10.12
2022-11-16T04:40:17.228Z,10.15
2022-11-16T04:42:44.228Z,10.14
2022-11-16T04:45:29.077Z,10.10
2022-11-16T04:47:56.534Z,10.07
2022-11-16T04:50:23.042Z,10.06
2022-11-16T04:52:49.614Z,10.00
2022-11-16T04:55:16.217Z,10.00
2022-11-16T04:57:42.775Z,10.00
2022-11-16T05:00:10.461Z,9.99
2022-11-16T05:02:37.072Z,9.97
2022-11-16T05:05:04.338Z,9.94
2022-11-16T05:07:31.488Z,9.95
2022-11-16T05:09:58.490Z,9.94
2022-11-16T05:12:27.071Z,9.87
2022-11-16T05:14:55.344Z,9.90
2022-11-16T05:17:23.569Z,9.87
2022-11-16T05:20:08.781Z,9.89
2022-11-16T05:22:36.607Z,9.87
2022-11-16T05:25:04.490Z,9.87
2022-11-16T05:27:31.499Z,9.80
2022-11-16T05:29:58.169Z,9.81
2022-11-16T05:32:26.954Z,9.76
2022-11-16T05:34:53.991Z,9.77
2022-11-16T05:37:22.001Z,9.71
2022-11-16T05:39:48.658Z,9.70
2022-11-16T05:42:16.338Z,9.66
2022-11-16T05:44:43.329Z,9.67
2022-11-16T05:47:10.416Z,9.68
2022-11-16T05:49:37.517Z,9.65
2022-11-16T05:52:04.185Z,9.65
2022-11-16T05:54:31.331Z,9.65
2022-11-16T05:56:57.915Z,9.59
2022-11-16T05:59:24.728Z,9.62
2022-11-16T06:01:51.618Z,9.56
2022-11-16T06:04:24.050Z,9.59
2022-11-16T06:06:51.125Z,9.57
2022-11-16T06:09:18.131Z,9.54
2022-11-16T06:11:45.109Z,9.54
2022-11-16T06:14:11.794Z,9.48
2022-11-16T06:16:39.211Z,9.50
2022-11-16T06:19:06.314Z,9.48
2022-11-16T06:21:33.118Z,9.45
2022-11-16T06:23:59.664Z,9.43
2022-11-16T06:26:26.354Z,9.41
2022-11-16T06:28:54.970Z,9.45
2022-11-16T06:31:21.957Z,9.37
2022-11-16T06:33:48.528Z,9.44
2022-11-16T06:36:15.046Z,9.37
2022-11-16T06:38:41.576Z,9.41
2022-11-16T06:41:08.278Z,9.34
2022-11-16T06:43:34.833Z,9.35
2022-11-16T06:46:02.061Z,9.26
2022-11-16T06:48:30.235Z,9.27
2022-11-16T06:50:56.720Z,9.17
2022-11-16T06:53:28.708Z,9.19
2022-11-16T06:55:55.617Z,9.23
2022-11-16T06:58:22.580Z,9.14
2022-11-16T07:00:49.126Z,9.08
2022-11-16T07:03:15.663Z,9.11
2022-11-16T07:05:42.213Z,9.01
2022-11-16T07:08:09.502Z,9.06
2022-11-16T07:10:37.829Z,9.00
2022-11-16T07:13:05.147Z,9.00
2022-11-16T07:15:32.602Z,8.99
2022-11-16T07:18:07.475Z,8.94
2022-11-16T07:20:34.997Z,8.87
2022-11-16T07:23:02.919Z,8.83
2022-11-16T07:25:31.438Z,8.83
2022-11-16T07:27:58.469Z,8.77
2022-11-16T07:30:25.936Z,8.71
2022-11-16T07:32:57.339Z,8.68
2022-11-16T07:35:23.908Z,8.65
2022-11-16T07:37:50.398Z,8.56
2022-11-16T07:40:17.032Z,8.51
2022-11-16T07:42:45.345Z,8.58
2022-11-16T07:45:12.190Z,8.57
2022-11-16T07:47:39.175Z,8.51
2022-11-16T07:50:06.754Z,8.46
2022-11-16T07:52:33.371Z,8.44
2022-11-16T07:55:01.692Z,8.46
2022-11-16T07:57:28.458Z,8.39
2022-11-16T07:59:55.055Z,8.45
2022-11-16T08:02:21.560Z,8.42
2022-11-16T08:04:48.190Z,8.43
2022-11-16T08:07:16.586Z,8.42
2022-11-16T08:09:43.555Z,8.41
2022-11-16T08:12:10.697Z,8.38
2022-11-16T08:14:37.261Z,8.38
2022-11-16T08:17:05.025Z,8.36
2022-11-16T08:19:31.623Z,8.39
2022-11-16T08:21:58.210Z,8.41
2022-11-16T08:24:25.247Z,8.44
2022-11-16T08:26:51.791Z,8.42
2022-11-16T08:29:18.389Z,8.44
2022-11-16T08:31:45.671Z,8.44
2022-11-16T08:34:13.263Z,8.46
2022-11-16T08:36:43.044Z,8.45
2022-11-16T08:39:10.244Z,8.48
2022-11-16T08:41:37.715Z,8.43
2022-11-16T08:44:04.636Z,8.48
2022-11-16T08:46:31.619Z,8.54
2022-11-16T08:48:58.893Z,8.54
2022-11-16T08:51:25.733Z,8.56
2022-11-16T08:53:59.310Z,8.57
2022-11-16T08:56:30.141Z,8.60
2022-11-16T08:59:02.800Z,8.64
2022-11-16T09:01:32.524Z,8.68
2022-11-16T09:04:00.119Z,8.66
2022-11-16T09:06:27.671Z,8.74
2022-11-16T09:08:56.119Z,8.72
2022-11-16T09:11:24.012Z,8.82
2022-11-16T09:13:52.739Z,8.82
2022-11-16T09:16:21.115Z,8.85
2022-11-16T09:18:49.570Z,8.84
2022-11-16T09:21:20.878Z,8.85
2022-11-16T09:23:48.985Z,8.82
2022-11-16T09:26:16.582Z,8.85
2022-11-16T09:28:43.144Z,8.82
2022-11-16T09:31:10.294Z,8.86
2022-11-16T09:33:37.195Z,8.86
2022-11-16T09:36:07.183Z,8.97
2022-11-16T09:39:13.321Z,8.93
2022-11-16T09:41:46.269Z,9.01
2022-11-16T09:44:31.433Z,9.05
2022-11-16T09:47:00.420Z,9.05
2022-11-16T09:49:41.340Z,9.05
2022-11-16T09:52:21.495Z,9.01
2022-11-16T09:54:52.661Z,9.12
2022-11-16T09:57:25.014Z,9.14
2022-11-16T09:59:57.409Z,9.25
2022-11-16T10:02:31.722Z,9.22
2022-11-16T10:05:02.984Z,9.26
2022-11-16T10:07:48.540Z,9.41
2022-11-16T10:10:30.113Z,9.36
2022-11-16T10:13:07.108Z,9.45
2022-11-16T10:16:00.429Z,9.56
2022-11-16T10:18:51.911Z,9.61
2022-11-16T10:21:25.611Z,9.61
2022-11-16T10:24:13.952Z,9.62
2022-11-16T10:26:51.854Z,9.53
2022-11-16T10:29:25.927Z,9.50
2022-11-16T10:32:18.370Z,9.47
2022-11-16T10:34:54.088Z,9.42
2022-11-16T10:37:22.534Z,9.40
2022-11-16T10:39:53.128Z,9.41
2022-11-16T10:42:32.632Z,9.45
2022-11-16T10:45:11.413Z,9.58
2022-11-16T10:47:44.805Z,9.61
2022-11-16T10:50:35.023Z,9.59
2022-11-16T10:53:02.267Z,9.63
2022-11-16T10:55:29.404Z,9.64
2022-11-16T10:58:04.681Z,9.60
2022-11-16T11:00:49.029Z,9.67
2022-11-16T11:03:29.095Z,9.64
2022-11-16T11:05:55.788Z,9.63
2022-11-16T11:08:30.612Z,9.61
2022-11-16T11:11:01.875Z,9.60
2022-11-16T11:13:28.552Z,9.56
2022-11-16T11:16:17.977Z,9.55
2022-11-16T11:18:44.498Z,9.56
2022-11-16T11:21:19.362Z,9.62
2022-11-16T11:23:59.468Z,9.60
2022-11-16T11:26:40.923Z,9.74
2022-11-16T11:29:27.653Z,9.87
2022-11-16T11:32:00.087Z,9.85
2022-11-16T11:34:39.961Z,9.92
2022-11-16T11:37:17.183Z,9.99
2022-11-16T11:39:43.822Z,10.02
2022-11-16T11:42:13.112Z,10.05
2022-11-16T11:45:15.330Z,10.06
2022-11-16T11:47:59.959Z,10.11
2022-11-16T11:50:45.555Z,10.05
2022-11-16T11:53:22.443Z,10.04
2022-11-16T11:55:55.009Z,10.01
2022-11-16T11:58:26.178Z,10.15
2022-11-16T12:01:00.335Z,10.12
2022-11-16T12:04:04.941Z,10.16
2022-11-16T12:06:41.175Z,10.23
2022-11-16T12:09:42.779Z,10.19
2022-11-16T12:12:24.218Z,10.26
2022-11-16T12:15:12.332Z,10.31
2022-11-16T12:17:46.996Z,10.28
2022-11-16T12:20:25.902Z,10.35
2022-11-16T12:23:22.187Z,10.31
2022-11-16T12:25:48.645Z,10.28
2022-11-16T12:28:39.850Z,10.35
2022-11-16T12:31:34.065Z,10.44
2022-11-16T12:34:20.941Z,10.58
2022-11-16T12:36:53.644Z,10.82
2022-11-16T12:39:44.963Z,10.84
2022-11-16T12:42:37.409Z,10.87
2022-11-16T12:45:31.869Z,10.80
2022-11-16T12:48:11.237Z,10.71
2022-11-16T12:50:40.748Z,10.68
2022-11-16T12:53:16.360Z,10.55
2022-11-16T12:55:42.851Z,10.53
2022-11-16T12:58:12.342Z,10.55
2022-11-16T13:01:05.182Z,10.61
2022-11-16T13:03:42.860Z,10.53
2022-11-16T13:06:21.310Z,10.45
2022-11-16T13:08:53.554Z,10.57
2022-11-16T13:11:31.018Z,10.54
2022-11-16T13:14:11.050Z,10.46
2022-11-16T13:16:38.185Z,10.49
2022-11-16T13:19:07.457Z,10.49
2022-11-16T13:22:03.089Z,10.46
2022-11-16T13:24:39.987Z,10.42
2022-11-16T13:27:22.359Z,10.35
2022-11-16T13:30:05.972Z,10.37
2022-11-16T13:32:32.396Z,10.34
2022-11-16T13:35:00.609Z,10.36
2022-11-16T13:37:39.390Z,10.44
2022-11-16T13:40:05.976Z,10.46
2022-11-16T13:42:58.218Z,10.41
2022-11-16T13:45:29.666Z,10.38
2022-11-16T13:47:59.319Z,10.26
2022-11-16T13:50:38.071Z,10.19
2022-11-16T13:56:04.423Z,10.05
2022-11-16T13:58:32.949Z,9.98
2022-11-16T14:01:02.218Z,9.96
2022-11-16T14:03:32.856Z,9.94
2022-11-16T14:05:59.630Z,9.90
2022-11-16T14:08:45.238Z,9.98
2022-11-16T14:11:32.156Z,10.22
2022-11-16T14:14:05.827Z,10.29
2022-11-16T14:16:44.482Z,10.37
2022-11-16T14:19:47.356Z,10.62
2022-11-16T14:22:22.714Z,10.53
2022-11-16T14:25:16.466Z,10.43
2022-11-16T14:27:53.178Z,10.38
2022-11-16T14:30:27.119Z,10.43
2022-11-16T14:32:55.883Z,10.44
2022-11-16T14:35:35.041Z,10.52
2022-11-16T14:38:08.022Z,10.40
2022-11-16T14:40:49.026Z,10.13
2022-11-16T14:43:21.805Z,10.06
2022-11-16T14:45:55.192Z,9.87
2022-11-16T14:48:25.843Z,9.86
2022-11-16T14:51:13.163Z,9.74
2022-11-16T14:53:45.445Z,9.73
2022-11-16T14:56:14.408Z,9.70
2022-11-16T14:58:54.692Z,9.61
2022-11-16T15:01:25.565Z,9.53
2022-11-16T15:04:04.345Z,9.47
2022-11-16T15:06:55.532Z,9.38
2022-11-16T15:09:38.712Z,9.38
2022-11-16T15:12:30.649Z,9.35
2022-11-16T15:15:03.185Z,9.19
2022-11-16T15:17:33.282Z,9.19
2022-11-16T15:20:03.897Z,9.18
2022-11-16T15:22:39.133Z,9.15
2022-11-16T15:25:06.093Z,9.17
2022-11-16T15:27:39.103Z,9.08
2022-11-16T15:30:15.970Z,9.08
2022-11-16T15:32:49.053Z,8.97
2022-11-16T15:35:21.806Z,8.97
2022-11-16T15:37:48.782Z,8.93
2022-11-16T15:40:15.582Z,8.84
2022-11-16T15:42:43.170Z,8.81
2022-11-16T15:45:21.417Z,8.73
2022-11-16T15:47:50.172Z,8.77
2022-11-16T15:50:23.264Z,8.73
2022-11-16T15:52:55.410Z,8.59
2022-11-16T15:55:38.864Z,8.49
2022-11-16T15:58:30.669Z,8.43
2022-11-16T16:00:58.942Z,8.54
2022-11-16T16:03:29.048Z,8.47
2022-11-16T16:06:03.218Z,8.43
2022-11-16T16:08:38.375Z,8.25
2022-11-16T16:11:28.016Z,8.30
2022-11-16T16:14:00.534Z,8.36
2022-11-16T16:16:39.476Z,8.54
2022-11-16T16:19:25.126Z,8.46
2022-11-16T16:21:52.224Z,8.54
2022-11-16T16:24:46.577Z,8.54
2022-11-16T16:27:19.048Z,8.48
2022-11-16T16:29:47.930Z,8.56
2022-11-16T16:32:18.604Z,8.56
2022-11-16T16:34:45.602Z,8.52
2022-11-16T16:37:12.906Z,8.58
2022-11-16T16:39:39.938Z,8.68
2022-11-16T16:42:12.982Z,8.69
2022-11-16T16:44:41.160Z,8.67
2022-11-16T16:47:08.504Z,8.62
2022-11-16T16:49:35.322Z,8.62
2022-11-16T16:52:02.266Z,8.63
2022-11-16T16:54:29.166Z,8.55
2022-11-16T16:56:57.361Z,8.49
2022-11-16T16:59:25.510Z,8.56
2022-11-16T17:01:54.266Z,8.52
2022-11-16T17:04:22.170Z,8.36
2022-11-16T17:06:52.185Z,8.31
2022-11-16T17:09:19.062Z,8.34
2022-11-16T17:11:49.587Z,8.35
2022-11-16T17:14:21.552Z,8.46
2022-11-16T17:16:48.261Z,8.54
2022-11-16T17:19:15.589Z,8.44
2022-11-16T17:21:48.404Z,8.37
2022-11-16T17:24:15.852Z,8.35
2022-11-16T17:26:43.254Z,8.41
2022-11-16T17:29:09.976Z,8.14
2022-11-16T17:31:37.153Z,8.22
2022-11-16T17:34:04.006Z,8.31
2022-11-16T17:36:31.156Z,8.34
2022-11-16T17:39:04.290Z,8.36
2022-11-16T17:41:31.754Z,8.23
2022-11-16T17:43:58.484Z,8.19
2022-11-16T17:46:26.211Z,8.22
2022-11-16T17:48:53.442Z,8.25
2022-11-16T17:51:21.915Z,8.26
2022-11-16T17:53:49.821Z,8.18
2022-11-16T17:56:19.336Z,8.19
2022-11-16T17:58:46.409Z,8.13
2022-11-16T18:01:14.328Z,8.16
2022-11-16T18:03:40.986Z,8.09
2022-11-16T18:06:16.135Z,8.16
2022-11-16T18:08:43.752Z,8.17
2022-11-16T18:11:19.531Z,8.09
2022-11-16T18:13:56.604Z,8.01
2022-11-16T18:16:28.563Z,8.10
2022-11-16T18:19:01.167Z,7.96
2022-11-16T18:21:29.337Z,8.14
2022-11-16T18:23:56.511Z,7.81
2022-11-16T18:26:24.700Z,7.82
2022-11-16T18:28:53.136Z,7.86
2022-11-16T18:31:24.508Z,7.97
2022-11-16T18:33:55.379Z,7.98
2022-11-16T18:36:23.041Z,8.10
2022-11-16T18:38:52.090Z,7.99
2022-11-16T18:41:23.949Z,7.99
2022-11-16T18:43:56.898Z,8.34
2022-11-16T18:46:30.895Z,8.32
2022-11-16T18:49:07.229Z,8.16
2022-11-16T18:51:48.660Z,8.16
2022-11-16T18:54:50.156Z,8.43
2022-11-16T18:57:20.129Z,8.46
2022-11-16T18:59:56.346Z,8.27
2022-11-16T19:02:25.077Z,8.63
2022-11-16T19:04:51.833Z,8.38
2022-11-16T19:07:21.318Z,8.39
2022-11-16T19:09:56.035Z,8.39
2022-11-16T19:12:28.448Z,8.64
2022-11-16T19:15:00.290Z,8.56
2022-11-16T19:18:06.407Z,8.58
2022-11-16T19:21:03.536Z,8.46
2022-11-16T19:23:37.807Z,8.56
2022-11-16T19:26:15.770Z,8.59
2022-11-16T19:29:07.038Z,8.41
2022-11-16T19:31:38.976Z,8.39
2022-11-16T19:34:09.657Z,8.47
2022-11-16T19:36:41.198Z,8.29
2022-11-16T19:39:22.154Z,8.51
2022-11-16T19:41:52.406Z,8.49
2022-11-16T19:44:25.615Z,8.36
2022-11-16T19:46:56.761Z,8.27
2022-11-16T19:49:39.324Z,8.29
2022-11-16T19:52:07.136Z,8.31
2022-11-16T19:54:44.637Z,8.54
2022-11-16T19:57:36.971Z,8.23
2022-11-16T20:00:07.675Z,8.34
2022-11-16T20:02:41.756Z,8.48
2022-11-16T20:05:14.581Z,8.40
2022-11-16T20:07:47.423Z,8.32
2022-11-16T20:10:14.206Z,8.38
2022-11-16T20:12:54.961Z,8.36
2022-11-16T20:15:33.574Z,8.44
2022-11-16T20:18:19.399Z,8.46
2022-11-16T20:20:53.151Z,8.48
2022-11-16T20:23:35.850Z,8.37
2022-11-16T20:26:15.935Z,8.25
2022-11-16T20:28:53.315Z,8.42
2022-11-16T20:31:31.108Z,8.36
2022-11-16T20:34:37.596Z,8.63
2022-11-16T20:37:15.077Z,8.51
2022-11-16T20:39:46.902Z,8.42
2022-11-16T20:42:25.565Z,8.46
2022-11-16T20:44:52.174Z,8.45
2022-11-16T20:47:18.929Z,8.55
2022-11-16T20:49:48.172Z,8.54
2022-11-16T20:52:17.714Z,8.65
2022-11-16T20:54:44.400Z,8.56
2022-11-16T20:57:11.112Z,8.45
2022-11-16T20:59:37.731Z,8.56
2022-11-16T21:02:15.842Z,8.58
2022-11-16T21:04:42.532Z,8.63
2022-11-16T21:07:09.212Z,8.82
2022-11-16T21:09:58.346Z,8.74
2022-11-16T21:12:46.284Z,8.83
2022-11-16T21:15:13.199Z,8.73
2022-11-16T21:17:43.097Z,8.62
2022-11-16T21:20:26.872Z,8.77
2022-11-16T21:22:54.400Z,8.68
2022-11-16T21:25:21.207Z,8.78
2022-11-16T21:27:50.803Z,8.65
2022-11-16T21:30:17.574Z,8.63
2022-11-16T21:32:44.447Z,8.68
2022-11-16T21:35:11.226Z,8.58
2022-11-16T21:37:40.283Z,8.90
2022-11-16T21:40:07.864Z,8.86
2022-11-16T21:42:43.530Z,8.75
2022-11-16T21:45:23.503Z,8.88
2022-11-16T21:47:56.267Z,8.83
2022-11-16T21:50:33.543Z,8.89
2022-11-16T21:53:03.507Z,8.91
2022-11-16T21:55:39.521Z,9.01
2022-11-16T21:58:07.153Z,8.84
2022-11-16T22:00:47.778Z,8.86
2022-11-16T22:03:30.807Z,8.89
2022-11-16T22:06:18.338Z,8.76
2022-11-16T22:08:49.918Z,8.91
2022-11-16T22:11:28.663Z,8.74
2022-11-16T22:14:05.633Z,9.03
2022-11-16T22:16:35.913Z,9.07
2022-11-16T22:19:31.305Z,8.98
2022-11-16T22:22:01.510Z,9.02
2022-11-16T22:24:30.460Z,9.02
2022-11-16T22:26:57.004Z,9.00
2022-11-16T22:29:23.642Z,8.96
2022-11-16T22:31:53.352Z,8.93
2022-11-16T22:34:20.186Z,8.99
2022-11-16T22:36:46.884Z,9.11
2022-11-16T22:39:14.853Z,9.02
2022-11-16T22:41:41.921Z,9.09
2022-11-16T22:44:08.543Z,9.12
2022-11-16T22:46:38.364Z,9.14
2022-11-16T22:49:04.918Z,9.10
2022-11-16T22:51:31.750Z,9.15
2022-11-16T22:54:01.794Z,9.25
2022-11-16T22:56:30.080Z,9.29
2022-11-16T22:58:56.737Z,9.24
2022-11-16T23:01:23.979Z,9.28
2022-11-16T23:03:51.366Z,9.33
2022-11-16T23:06:18.495Z,9.28
2022-11-16T23:08:45.064Z,9.37
2022-11-16T23:11:32.929Z,9.30
2022-11-16T23:14:18.993Z,9.31
2022-11-16T23:16:46.031Z,9.31
2022-11-16T23:19:34.291Z,9.35
2022-11-16T23:22:19.716Z,9.30
2022-11-16T23:25:04.979Z,9.32
2022-11-16T23:27:50.046Z,9.30
2022-11-16T23:30:17.946Z,9.17
2022-11-16T23:32:44.587Z,9.15
2022-11-16T23:35:11.295Z,9.14
2022-11-16T23:38:05.356Z,9.19
2022-11-16T23:40:34.495Z,9.14
2022-11-16T23:43:20.214Z,9.09
2022-11-16T23:45:48.871Z,8.94
2022-11-16T23:48:16.708Z,9.04
2022-11-16T23:50:45.113Z,8.94
2022-11-16T23:53:13.322Z,9.00
2022-11-16T23:55:40.654Z,8.97
2022-11-16T23:58:12.782Z,8.89
